createdAt,value
2023-02-24T00:00:37.929Z,19.80
2023-02-24T00:03:11.159Z,18.00
2023-02-24T00:05:44.417Z,19.00
2023-02-24T00:08:12.690Z,19.50
2023-02-24T00:10:41.589Z,19.43
2023-02-24T00:13:12.193Z,18.57
2023-02-24T00:15:41.148Z,17.80
2023-02-24T00:18:10.489Z,19.07
2023-02-24T00:20:40.119Z,20.50
2023-02-24T00:23:11.591Z,20.87
2023-02-24T00:25:39.789Z,20.40
2023-02-24T00:28:08.893Z,21.87
2023-02-24T00:30:37.178Z,21.43
2023-02-24T00:33:06.618Z,21.93
2023-02-24T00:35:36.190Z,21.00
2023-02-24T00:38:05.792Z,21.97
2023-02-24T00:40:37.144Z,22.07
2023-02-24T00:43:05.748Z,21.87
2023-02-24T00:45:39.070Z,24.67
2023-02-24T00:48:10.702Z,23.73
2023-02-24T00:50:40.040Z,24.53
2023-02-24T00:53:11.741Z,23.30
2023-02-24T00:55:39.988Z,23.40
2023-02-24T00:58:08.260Z,25.53
2023-02-24T01:00:37.833Z,25.43
2023-02-24T01:03:07.350Z,25.73
2023-02-24T01:05:38.285Z,26.93
2023-02-24T01:08:08.841Z,28.03
2023-02-24T01:10:39.238Z,29.17
2023-02-24T01:13:06.474Z,28.73
2023-02-24T01:15:36.895Z,28.97
2023-02-24T01:18:05.583Z,30.63
2023-02-24T01:20:38.471Z,30.50
2023-02-24T01:23:07.925Z,29.50
2023-02-24T01:25:40.066Z,29.20
2023-02-24T01:28:11.154Z,32.17
2023-02-24T01:30:39.554Z,30.57
2023-02-24T01:33:08.195Z,31.43
2023-02-24T01:35:37.600Z,30.83
2023-02-24T01:38:05.873Z,31.77
2023-02-24T01:40:35.668Z,31.77
2023-02-24T01:43:08.901Z,31.57
2023-02-24T01:45:40.025Z,34.20
2023-02-24T01:48:10.967Z,31.80
2023-02-24T01:50:39.907Z,31.00
2023-02-24T01:53:11.062Z,30.53
2023-02-24T01:55:46.610Z,31.20
2023-02-24T01:58:23.853Z,31.30
2023-02-24T02:00:52.531Z,30.83
2023-02-24T02:03:27.486Z,30.80
2023-02-24T02:06:01.036Z,30.40
2023-02-24T02:08:33.285Z,30.93
2023-02-24T02:11:07.037Z,30.73
2023-02-24T02:13:38.306Z,29.63
2023-02-24T02:16:34.907Z,30.57
2023-02-24T02:19:21.083Z,30.23
2023-02-24T02:22:08.101Z,29.80
2023-02-24T02:24:48.433Z,30.73
2023-02-24T02:27:46.377Z,32.47
2023-02-24T02:30:50.044Z,33.47
2023-02-24T02:33:57.208Z,33.57
2023-02-24T02:36:38.744Z,33.53
2023-02-24T02:39:14.850Z,33.33
2023-02-24T02:41:51.416Z,32.23
2023-02-24T02:44:23.735Z,33.57
2023-02-24T02:46:58.346Z,33.40
2023-02-24T02:49:33.035Z,29.60
2023-02-24T02:52:15.481Z,30.70
2023-02-24T02:54:50.983Z,30.77
2023-02-24T02:57:23.423Z,33.27
2023-02-24T02:59:58.064Z,33.60
2023-02-24T03:02:30.578Z,34.17
2023-02-24T03:05:03.939Z,33.73
2023-02-24T03:07:40.433Z,32.57
2023-02-24T03:10:17.652Z,34.47
2023-02-24T03:12:47.217Z,32.73
2023-02-24T03:15:21.035Z,32.87
2023-02-24T03:17:56.601Z,33.93
2023-02-24T03:20:32.848Z,31.53
2023-02-24T03:23:11.999Z,33.40
2023-02-24T03:25:58.681Z,31.37
2023-02-24T03:28:40.712Z,31.77
2023-02-24T03:31:14.381Z,32.57
2023-02-24T03:33:47.790Z,32.40
2023-02-24T03:36:16.132Z,33.10
2023-02-24T03:38:49.331Z,32.83
2023-02-24T03:41:19.555Z,34.90
2023-02-24T03:43:51.119Z,32.50
2023-02-24T03:46:19.670Z,35.10
2023-02-24T03:48:53.999Z,32.33
2023-02-24T03:51:24.338Z,32.77
2023-02-24T03:54:09.005Z,34.00
2023-02-24T03:56:47.822Z,32.50
2023-02-24T03:59:27.737Z,32.23
2023-02-24T04:02:02.417Z,34.93
2023-02-24T04:04:43.305Z,33.13
2023-02-24T04:07:31.321Z,33.00
2023-02-24T04:10:09.467Z,32.20
2023-02-24T04:12:46.991Z,33.20
2023-02-24T04:15:21.762Z,30.47
2023-02-24T04:17:53.313Z,29.67
2023-02-24T04:20:29.742Z,33.93
2023-02-24T04:23:08.667Z,32.83
2023-02-24T04:25:41.895Z,33.03
2023-02-24T04:28:12.931Z,31.57
2023-02-24T04:30:49.311Z,34.17
2023-02-24T04:33:19.233Z,31.07
2023-02-24T04:35:50.526Z,30.83
2023-02-24T04:38:20.273Z,30.27
2023-02-24T04:40:51.443Z,28.97
2023-02-24T04:43:19.994Z,30.10
2023-02-24T04:45:48.212Z,30.73
2023-02-24T04:48:16.369Z,30.93
2023-02-24T04:50:45.735Z,29.87
2023-02-24T04:53:18.027Z,29.07
2023-02-24T04:55:48.861Z,30.17
2023-02-24T04:58:21.239Z,30.63
2023-02-24T05:00:52.801Z,30.33
2023-02-24T05:03:22.420Z,31.37
2023-02-24T05:05:52.995Z,31.20
2023-02-24T05:08:21.375Z,28.03
2023-02-24T05:10:50.649Z,28.13
2023-02-24T05:13:25.379Z,30.40
2023-02-24T05:15:56.064Z,28.57
2023-02-24T05:18:30.245Z,27.77
2023-02-24T05:21:16.437Z,28.93
2023-02-24T05:23:47.565Z,27.33
2023-02-24T05:26:18.124Z,29.80
2023-02-24T05:28:49.849Z,28.57
2023-02-24T05:31:20.658Z,28.73
2023-02-24T05:33:54.583Z,28.77
2023-02-24T05:36:23.425Z,29.30
2023-02-24T05:38:57.943Z,29.77
2023-02-24T05:41:32.582Z,28.77
2023-02-24T05:44:04.862Z,28.53
2023-02-24T05:46:35.299Z,30.73
2023-02-24T05:49:08.779Z,31.00
2023-02-24T05:51:43.325Z,29.70
2023-02-24T05:54:14.893Z,29.57
2023-02-24T05:56:43.814Z,31.63
2023-02-24T05:59:18.243Z,30.20
2023-02-24T06:01:46.718Z,26.47
2023-02-24T06:04:28.002Z,28.63
2023-02-24T06:06:56.657Z,28.60
2023-02-24T06:09:25.202Z,28.53
2023-02-24T06:11:54.281Z,29.20
2023-02-24T06:14:23.824Z,30.13
2023-02-24T06:16:52.070Z,29.60
2023-02-24T06:19:23.225Z,29.83
2023-02-24T06:21:52.615Z,29.97
2023-02-24T06:24:21.003Z,27.27
2023-02-24T06:26:50.161Z,28.03
2023-02-24T06:29:19.258Z,29.70
2023-02-24T06:31:50.227Z,27.90
2023-02-24T06:34:19.235Z,29.87
2023-02-24T06:36:49.139Z,30.47
2023-02-24T06:39:17.627Z,30.67
2023-02-24T06:41:46.576Z,29.50
2023-02-24T06:44:14.832Z,31.33
2023-02-24T06:46:43.343Z,28.70
2023-02-24T06:49:13.188Z,28.93
2023-02-24T06:51:43.421Z,29.80
2023-02-24T06:54:12.635Z,28.90
2023-02-24T06:56:41.767Z,29.37
2023-02-24T06:59:12.740Z,29.80
2023-02-24T07:01:45.297Z,31.77
2023-02-24T07:04:20.838Z,31.60
2023-02-24T07:06:52.480Z,31.07
2023-02-24T07:09:22.453Z,30.37
2023-02-24T07:11:52.362Z,30.80
2023-02-24T07:14:22.221Z,29.97
2023-02-24T07:16:54.652Z,31.10
2023-02-24T07:19:26.549Z,28.50
2023-02-24T07:22:00.051Z,29.27
2023-02-24T07:24:35.930Z,30.20
2023-02-24T07:27:09.445Z,29.43
2023-02-24T07:29:38.882Z,29.87
2023-02-24T07:32:09.756Z,29.10
2023-02-24T07:34:40.951Z,28.80
2023-02-24T07:37:10.297Z,29.13
2023-02-24T07:39:40.189Z,28.00
2023-02-24T07:42:10.894Z,30.13
2023-02-24T07:44:55.214Z,29.57
2023-02-24T07:47:25.166Z,28.87
2023-02-24T07:49:55.424Z,29.90
2023-02-24T07:52:23.678Z,29.93
2023-02-24T07:54:51.958Z,29.07
2023-02-24T07:57:20.633Z,30.17
2023-02-24T07:59:48.974Z,27.77
2023-02-24T08:02:18.326Z,28.77
2023-02-24T08:04:50.476Z,30.17
2023-02-24T08:07:24.751Z,28.60
2023-02-24T08:10:24.202Z,28.83
2023-02-24T08:12:55.580Z,28.10
2023-02-24T08:15:25.382Z,28.97
2023-02-24T08:17:59.496Z,27.97
2023-02-24T08:20:36.228Z,27.47
2023-02-24T08:23:08.771Z,27.50
2023-02-24T08:25:37.018Z,27.47
2023-02-24T08:28:09.318Z,26.63
2023-02-24T08:30:40.908Z,26.67
2023-02-24T08:33:11.632Z,26.43
2023-02-24T08:35:44.710Z,26.80
2023-02-24T08:38:18.533Z,27.93
2023-02-24T08:40:51.728Z,26.97
2023-02-24T08:43:32.636Z,26.97
2023-02-24T08:46:04.816Z,26.53
2023-02-24T08:48:39.157Z,26.70
2023-02-24T08:51:12.284Z,26.10
2023-02-24T08:53:41.971Z,26.63
2023-02-24T08:56:12.956Z,26.10
2023-02-24T08:58:47.175Z,24.17
2023-02-24T09:01:24.000Z,27.10
2023-02-24T09:03:55.320Z,28.87
2023-02-24T09:06:27.601Z,26.47
2023-02-24T09:09:11.935Z,25.37
2023-02-24T09:11:44.091Z,25.03
2023-02-24T09:14:32.213Z,26.10
2023-02-24T09:17:04.044Z,24.87
2023-02-24T09:20:06.362Z,25.30
2023-02-24T09:22:55.826Z,24.70
2023-02-24T09:25:40.679Z,24.67
2023-02-24T09:28:17.276Z,25.63
2023-02-24T09:30:54.208Z,26.03
2023-02-24T09:33:25.738Z,24.43
2023-02-24T09:36:03.069Z,24.80
2023-02-24T09:38:49.389Z,24.20
2023-02-24T09:41:33.195Z,24.67
2023-02-24T09:44:07.421Z,24.90
2023-02-24T09:46:53.978Z,24.70
2023-02-24T09:49:27.057Z,26.13
2023-02-24T09:52:00.478Z,25.27
2023-02-24T09:54:35.366Z,23.63
2023-02-24T09:57:16.682Z,24.43
2023-02-24T10:00:01.340Z,23.00
2023-02-24T10:02:44.413Z,22.10
2023-02-24T10:05:26.600Z,24.27
2023-02-24T10:07:57.066Z,24.17
2023-02-24T10:10:29.171Z,23.77
2023-02-24T10:13:13.224Z,23.50
2023-02-24T10:15:59.201Z,21.33
2023-02-24T10:18:32.083Z,23.90
2023-02-24T10:21:06.937Z,22.93
2023-02-24T10:23:56.372Z,20.67
2023-02-24T10:26:32.905Z,21.93
2023-02-24T10:29:22.753Z,21.33
2023-02-24T10:31:57.877Z,22.37
2023-02-24T10:34:31.892Z,22.07
2023-02-24T10:37:07.747Z,24.07
2023-02-24T10:39:36.735Z,23.17
2023-02-24T10:42:19.703Z,22.83
2023-02-24T10:45:03.198Z,23.60
2023-02-24T10:47:32.870Z,22.63
2023-02-24T10:50:03.545Z,22.47
2023-02-24T10:52:37.095Z,22.37
2023-02-24T10:55:24.626Z,22.47
2023-02-24T10:58:00.588Z,22.13
2023-02-24T11:01:01.155Z,22.90
2023-02-24T11:03:42.095Z,22.27
2023-02-24T11:06:42.185Z,22.63
2023-02-24T11:09:32.051Z,20.63
2023-02-24T11:12:23.045Z,20.00
2023-02-24T11:15:12.292Z,19.73
2023-02-24T11:17:52.082Z,20.30
2023-02-24T11:20:46.188Z,20.40
2023-02-24T11:23:19.794Z,18.97
2023-02-24T11:25:51.182Z,20.77
2023-02-24T11:28:44.793Z,19.70
2023-02-24T11:31:25.389Z,19.43
2023-02-24T11:34:05.297Z,18.10
2023-02-24T11:36:43.521Z,17.27
2023-02-24T11:39:31.689Z,17.27
2023-02-24T11:42:05.296Z,17.60
2023-02-24T11:44:41.292Z,17.53
2023-02-24T11:47:16.245Z,17.77
2023-02-24T11:49:52.578Z,16.47
2023-02-24T11:52:28.373Z,19.03
2023-02-24T11:55:03.836Z,20.13
2023-02-24T11:57:40.393Z,18.83
2023-02-24T12:00:20.155Z,17.90
2023-02-24T12:02:54.905Z,19.43
2023-02-24T12:05:28.343Z,17.30
2023-02-24T12:08:02.878Z,19.73
2023-02-24T12:10:33.490Z,18.27
2023-02-24T12:13:08.538Z,18.87
2023-02-24T12:15:41.855Z,18.30
2023-02-24T12:18:17.723Z,18.30
2023-02-24T12:20:51.738Z,18.40
2023-02-24T12:23:26.965Z,19.27
2023-02-24T12:26:17.660Z,19.50
2023-02-24T12:29:09.701Z,17.73
2023-02-24T12:31:45.643Z,20.03
2023-02-24T12:34:21.317Z,20.50
2023-02-24T12:37:07.595Z,20.07
2023-02-24T12:39:43.634Z,22.20
2023-02-24T12:42:23.328Z,21.73
2023-02-24T12:44:59.009Z,21.60
2023-02-24T12:47:38.276Z,22.80
2023-02-24T12:50:32.031Z,21.70
2023-02-24T12:53:09.422Z,22.67
2023-02-24T12:55:55.349Z,23.83
2023-02-24T12:58:27.578Z,24.73
2023-02-24T13:01:07.208Z,22.43
2023-02-24T13:04:05.246Z,23.90
2023-02-24T13:06:47.117Z,24.17
2023-02-24T13:09:42.022Z,23.17
2023-02-24T13:12:18.141Z,24.07
2023-02-24T13:15:01.655Z,22.50
2023-02-24T13:17:30.037Z,23.80
2023-02-24T13:19:58.545Z,23.63
2023-02-24T13:22:29.918Z,24.10
2023-02-24T13:25:04.477Z,22.57
2023-02-24T13:27:36.071Z,22.97
2023-02-24T13:30:24.534Z,22.33
